METAR Data
IDs: Format: Raw Decoded Include TAF

Data at: 0257 UTC 24 Jun 2021

METAR for:KHAO (Hamilton/Butler Cnty, OH, US)
Text:KHAO 240253Z AUTO 00000KT 10SM CLR 16/13 A3016 RMK AO2 SLP211 T01610128 53001
Temperature: 16.1°C ( 61°F)
Dewpoint: 12.8°C ( 55°F) [RH = 81%]
Pressure (altimeter):30.16 inches Hg (1021.4 mb) [Sea level pressure: 1021.1 mb]
Winds:calm
Visibility:10 or more sm (16+ km)
Ceiling:at least 12,000 feet AGL
Clouds:sky clear below 12,000 feet AGL
QC Flag:automated observation with no human augmentation